NOO4053 MSLP-SEQM
Flight info
| Callsign | NOO4053 |
|---|---|
| Flight time | 2h 26m |
| Altitude | 37000 |
| Route | ALTEG2E ALTEG DCT TEXUP DCT PAPIN DCT IRASO DCT UMGOS DCT AKTAB DCT ILVOX DCT QIT |
| Aircraft | A339/H-SADE1E2E3GHIJ3J5M1P2RWXY/LB2D1 |
Departure
| Time | 2026-04-27 17:22 |
|---|---|
| Airport | El Salvador International Airport Saint Óscar Arnulfo Romero y Galdámez (MSLP) |
Arrival
| Time | 2026-04-27 19:49 |
|---|---|
| Airport | Mariscal Sucre International Airport (SEQM) |
| Time | Latitude | Longitude | Altitude | Speed | Heading |
|---|---|---|---|---|---|
| 2026-04-27 16:41 | 13.44213 | -89.06254 | 121 ft | 0 kts | 340° |
| 2026-04-27 17:09 | 13.44212 | -89.06254 | 123 ft | 0 kts | 340° |
| 2026-04-27 17:09 | 13.44202 | -89.06250 | 123 ft | 2 kts | 340° |
| 2026-04-27 17:09 | 13.44188 | -89.06245 | 122 ft | 2 kts | 340° |
| 2026-04-27 17:09 | 13.44174 | -89.06240 | 122 ft | 1 kts | 339° |
| 2026-04-27 17:10 | 13.44165 | -89.06235 | 122 ft | 1 kts | 321° |
| 2026-04-27 17:10 | 13.44156 | -89.06226 | 121 ft | 2 kts | 309° |
| 2026-04-27 17:10 | 13.44148 | -89.06215 | 121 ft | 1 kts | 298° |
| 2026-04-27 17:10 | 13.44145 | -89.06211 | 121 ft | 0 kts | 281° |
| 2026-04-27 17:11 | 13.44145 | -89.06207 | 121 ft | 0 kts | 263° |
| 2026-04-27 17:11 | 13.44147 | -89.06198 | 121 ft | 0 kts | 251° |
| 2026-04-27 17:16 | 13.44145 | -89.06205 | 121 ft | 2 kts | 251° |
| 2026-04-27 17:16 | 13.44135 | -89.06235 | 120 ft | 6 kts | 250° |
| 2026-04-27 17:16 | 13.44116 | -89.06287 | 119 ft | 9 kts | 250° |
| 2026-04-27 17:16 | 13.44090 | -89.06360 | 117 ft | 12 kts | 250° |
| 2026-04-27 17:17 | 13.44062 | -89.06429 | 116 ft | 7 kts | 226° |
| 2026-04-27 17:17 | 13.44006 | -89.06426 | 115 ft | 8 kts | 163° |
| 2026-04-27 17:17 | 13.43970 | -89.06456 | 114 ft | 9 kts | 249° |
| 2026-04-27 17:18 | 13.43912 | -89.06615 | 111 ft | 14 kts | 250° |
| 2026-04-27 17:18 | 13.43877 | -89.06715 | 109 ft | 15 kts | 250° |
| 2026-04-27 17:18 | 13.43836 | -89.06829 | 107 ft | 17 kts | 249° |
| 2026-04-27 17:18 | 13.43791 | -89.06953 | 104 ft | 15 kts | 250° |
| 2026-04-27 17:19 | 13.43760 | -89.06998 | 104 ft | 7 kts | 195° |
| 2026-04-27 17:19 | 13.43698 | -89.06986 | 103 ft | 10 kts | 162° |
| 2026-04-27 17:19 | 13.43630 | -89.06954 | 102 ft | 8 kts | 137° |
| 2026-04-27 17:19 | 13.43623 | -89.06893 | 102 ft | 8 kts | 69° |
| 2026-04-27 17:20 | 13.43628 | -89.06880 | 103 ft | 0 kts | 69° |
| 2026-04-27 17:20 | 13.43629 | -89.06879 | 103 ft | 0 kts | 69° |
| 2026-04-27 17:20 | 13.43629 | -89.06877 | 103 ft | 0 kts | 69° |
| 2026-04-27 17:21 | 13.43630 | -89.06875 | 102 ft | 4 kts | 69° |
| 2026-04-27 17:21 | 13.43719 | -89.06626 | 107 ft | 70 kts | 70° |
| 2026-04-27 17:21 | 13.43959 | -89.05952 | 117 ft | 128 kts | 70° |
| 2026-04-27 17:22 | 13.44333 | -89.04913 | 153 ft | 174 kts | 70° |
| 2026-04-27 17:22 | 13.44756 | -89.03739 | 694 ft | 174 kts | 71° |
| 2026-04-27 17:22 | 13.45169 | -89.02604 | 1318 ft | 172 kts | 70° |
| 2026-04-27 17:22 | 13.45567 | -89.01461 | 1862 ft | 168 kts | 70° |
| 2026-04-27 17:23 | 13.45934 | -89.00342 | 2362 ft | 163 kts | 75° |
| 2026-04-27 17:23 | 13.46166 | -88.99242 | 2866 ft | 154 kts | 83° |
| 2026-04-27 17:23 | 13.46237 | -88.98154 | 3212 ft | 157 kts | 91° |
| 2026-04-27 17:23 | 13.46160 | -88.96991 | 3464 ft | 167 kts | 97° |
| 2026-04-27 17:24 | 13.45934 | -88.95775 | 3687 ft | 180 kts | 104° |
| 2026-04-27 17:24 | 13.45514 | -88.94527 | 3922 ft | 193 kts | 114° |
| 2026-04-27 17:24 | 13.44822 | -88.93277 | 4191 ft | 206 kts | 123° |
| 2026-04-27 17:24 | 13.43903 | -88.92097 | 4454 ft | 220 kts | 131° |
| 2026-04-27 17:25 | 13.42810 | -88.90913 | 4731 ft | 236 kts | 132° |
| 2026-04-27 17:25 | 13.41637 | -88.89655 | 5017 ft | 252 kts | 132° |
| 2026-04-27 17:25 | 13.40366 | -88.88293 | 5326 ft | 268 kts | 132° |
| 2026-04-27 17:25 | 13.39060 | -88.86893 | 5827 ft | 274 kts | 131° |
| 2026-04-27 17:26 | 13.37735 | -88.85472 | 6440 ft | 276 kts | 131° |
| 2026-04-27 17:26 | 13.36415 | -88.84056 | 7031 ft | 279 kts | 131° |
| 2026-04-27 17:26 | 13.35061 | -88.82601 | 7632 ft | 282 kts | 131° |
| 2026-04-27 17:26 | 13.33701 | -88.81140 | 8224 ft | 285 kts | 130° |
| 2026-04-27 17:27 | 13.32327 | -88.79662 | 8811 ft | 287 kts | 130° |
| 2026-04-27 17:27 | 13.30947 | -88.78177 | 9412 ft | 290 kts | 130° |
| 2026-04-27 17:27 | 13.29548 | -88.76672 | 9977 ft | 293 kts | 130° |
| 2026-04-27 17:27 | 13.28130 | -88.75143 | 10418 ft | 301 kts | 130° |
| 2026-04-27 17:28 | 13.26665 | -88.73564 | 10660 ft | 316 kts | 130° |
| 2026-04-27 17:28 | 13.25105 | -88.71883 | 10912 ft | 330 kts | 130° |
| 2026-04-27 17:28 | 13.21799 | -88.68328 | 11392 ft | 359 kts | 131° |
| 2026-04-27 17:29 | 13.20030 | -88.66428 | 11646 ft | 373 kts | 131° |
| 2026-04-27 17:29 | 13.18203 | -88.64467 | 11898 ft | 385 kts | 131° |
| 2026-04-27 17:29 | 13.16341 | -88.62469 | 12329 ft | 391 kts | 131° |
| 2026-04-27 17:29 | 13.14464 | -88.60455 | 12849 ft | 394 kts | 131° |
| 2026-04-27 17:30 | 13.12536 | -88.58389 | 13365 ft | 398 kts | 131° |
| 2026-04-27 17:30 | 13.08679 | -88.54254 | 14419 ft | 404 kts | 131° |
| 2026-04-27 17:30 | 13.06742 | -88.52178 | 14922 ft | 407 kts | 131° |
| 2026-04-27 17:31 | 13.04762 | -88.50055 | 15418 ft | 410 kts | 131° |
| 2026-04-27 17:31 | 13.02805 | -88.47958 | 15913 ft | 413 kts | 131° |
| 2026-04-27 17:31 | 13.00800 | -88.45809 | 16388 ft | 416 kts | 131° |
| 2026-04-27 17:31 | 12.98809 | -88.43675 | 16828 ft | 419 kts | 131° |
| 2026-04-27 17:32 | 12.96777 | -88.41498 | 17319 ft | 422 kts | 131° |
| 2026-04-27 17:32 | 12.92699 | -88.37131 | 18203 ft | 429 kts | 131° |
| 2026-04-27 17:32 | 12.90607 | -88.34892 | 18649 ft | 432 kts | 131° |
| 2026-04-27 17:33 | 12.88523 | -88.32662 | 19092 ft | 435 kts | 131° |
| 2026-04-27 17:33 | 12.86414 | -88.30405 | 19524 ft | 439 kts | 131° |
| 2026-04-27 17:33 | 12.84279 | -88.28122 | 19946 ft | 442 kts | 131° |
| 2026-04-27 17:33 | 12.82149 | -88.25845 | 20354 ft | 445 kts | 131° |
| 2026-04-27 17:34 | 12.80020 | -88.23567 | 20741 ft | 449 kts | 131° |
| 2026-04-27 17:34 | 12.77831 | -88.21227 | 21142 ft | 452 kts | 131° |
| 2026-04-27 17:34 | 12.75640 | -88.18886 | 21535 ft | 455 kts | 131° |
| 2026-04-27 17:34 | 12.73447 | -88.16544 | 21916 ft | 458 kts | 131° |
| 2026-04-27 17:35 | 12.71259 | -88.14207 | 22285 ft | 461 kts | 131° |
| 2026-04-27 17:35 | 12.69029 | -88.11826 | 22656 ft | 463 kts | 131° |
| 2026-04-27 17:35 | 12.66783 | -88.09427 | 23027 ft | 466 kts | 131° |
| 2026-04-27 17:35 | 12.64530 | -88.07022 | 23388 ft | 469 kts | 131° |
| 2026-04-27 17:36 | 12.62285 | -88.04625 | 23741 ft | 472 kts | 131° |
| 2026-04-27 17:36 | 12.59996 | -88.02183 | 24087 ft | 475 kts | 131° |
| 2026-04-27 17:36 | 12.57694 | -87.99728 | 24428 ft | 477 kts | 131° |
| 2026-04-27 17:36 | 12.55465 | -87.97225 | 24748 ft | 479 kts | 129° |
| 2026-04-27 17:37 | 12.53324 | -87.94595 | 25077 ft | 482 kts | 127° |
| 2026-04-27 17:37 | 12.51192 | -87.91930 | 25404 ft | 484 kts | 127° |
| 2026-04-27 17:37 | 12.49054 | -87.89246 | 25726 ft | 487 kts | 127° |
| 2026-04-27 17:37 | 12.46913 | -87.86558 | 26042 ft | 489 kts | 127° |
| 2026-04-27 17:38 | 12.44757 | -87.83854 | 26351 ft | 492 kts | 127° |
| 2026-04-27 17:38 | 12.42594 | -87.81143 | 26670 ft | 494 kts | 128° |
| 2026-04-27 17:38 | 12.40406 | -87.78404 | 26980 ft | 496 kts | 128° |
| 2026-04-27 17:38 | 12.38218 | -87.75668 | 27271 ft | 499 kts | 128° |
| 2026-04-27 17:39 | 12.36048 | -87.72952 | 27637 ft | 499 kts | 128° |
| 2026-04-27 17:39 | 12.33857 | -87.70214 | 28078 ft | 498 kts | 128° |
| 2026-04-27 17:39 | 12.31667 | -87.67477 | 28514 ft | 496 kts | 128° |
| 2026-04-27 17:39 | 12.29486 | -87.64752 | 28929 ft | 496 kts | 128° |
| 2026-04-27 17:40 | 12.27305 | -87.62029 | 29340 ft | 495 kts | 128° |
| 2026-04-27 17:40 | 12.25123 | -87.59306 | 29761 ft | 494 kts | 128° |
| 2026-04-27 17:40 | 12.22940 | -87.56578 | 30192 ft | 492 kts | 129° |
| 2026-04-27 17:40 | 12.20796 | -87.53901 | 30622 ft | 491 kts | 129° |
| 2026-04-27 17:41 | 12.18627 | -87.51193 | 31036 ft | 490 kts | 129° |
| 2026-04-27 17:41 | 12.16460 | -87.48491 | 31443 ft | 489 kts | 129° |
| 2026-04-27 17:41 | 12.14310 | -87.45810 | 31843 ft | 487 kts | 129° |
| 2026-04-27 17:41 | 12.12178 | -87.43152 | 32238 ft | 486 kts | 129° |
| 2026-04-27 17:42 | 12.10038 | -87.40485 | 32639 ft | 485 kts | 130° |
| 2026-04-27 17:42 | 12.07912 | -87.37837 | 33044 ft | 484 kts | 130° |
| 2026-04-27 17:42 | 12.05777 | -87.35179 | 33462 ft | 482 kts | 130° |
| 2026-04-27 17:42 | 12.03657 | -87.32541 | 33878 ft | 481 kts | 130° |
| 2026-04-27 17:43 | 12.01536 | -87.29903 | 34285 ft | 479 kts | 130° |
| 2026-04-27 17:43 | 11.99414 | -87.27261 | 34681 ft | 477 kts | 130° |
| 2026-04-27 17:43 | 11.97318 | -87.24654 | 35055 ft | 476 kts | 130° |
| 2026-04-27 17:43 | 11.95242 | -87.22071 | 35388 ft | 475 kts | 130° |
| 2026-04-27 17:44 | 11.93144 | -87.19460 | 35653 ft | 476 kts | 130° |
| 2026-04-27 17:44 | 11.91018 | -87.16815 | 35882 ft | 477 kts | 130° |
| 2026-04-27 17:44 | 11.88928 | -87.14218 | 36126 ft | 477 kts | 130° |
| 2026-04-27 17:44 | 11.86825 | -87.11605 | 36356 ft | 478 kts | 130° |
| 2026-04-27 17:45 | 11.84706 | -87.08984 | 36570 ft | 479 kts | 131° |
| 2026-04-27 17:45 | 11.82469 | -87.06427 | 36761 ft | 480 kts | 134° |
| 2026-04-27 17:45 | 11.80127 | -87.04029 | 36902 ft | 481 kts | 137° |
| 2026-04-27 17:46 | 11.75025 | -86.99613 | 36906 ft | 480 kts | 143° |
| 2026-04-27 17:46 | 11.69700 | -86.95479 | 36905 ft | 480 kts | 144° |
| 2026-04-27 17:47 | 11.64382 | -86.91357 | 36911 ft | 480 kts | 144° |
| 2026-04-27 17:47 | 11.59082 | -86.87243 | 36909 ft | 479 kts | 143° |
| 2026-04-27 17:48 | 11.53764 | -86.83110 | 36912 ft | 478 kts | 143° |
| 2026-04-27 17:48 | 11.48462 | -86.78990 | 36913 ft | 478 kts | 143° |
| 2026-04-27 17:49 | 11.43202 | -86.74905 | 36918 ft | 478 kts | 143° |
| 2026-04-27 17:49 | 11.37877 | -86.70772 | 36926 ft | 478 kts | 144° |
| 2026-04-27 17:50 | 11.32589 | -86.66669 | 36926 ft | 478 kts | 144° |
| 2026-04-27 17:50 | 11.24685 | -86.60540 | 36925 ft | 477 kts | 144° |
| 2026-04-27 17:51 | 11.19392 | -86.56438 | 36928 ft | 476 kts | 144° |
| 2026-04-27 17:51 | 11.14113 | -86.52348 | 36926 ft | 476 kts | 143° |
| 2026-04-27 17:52 | 11.08846 | -86.48271 | 36925 ft | 476 kts | 144° |
| 2026-04-27 17:52 | 11.03590 | -86.44202 | 36921 ft | 475 kts | 143° |
| 2026-04-27 17:53 | 10.98329 | -86.40133 | 36920 ft | 475 kts | 144° |
| 2026-04-27 17:53 | 10.93048 | -86.36049 | 36913 ft | 475 kts | 144° |
| 2026-04-27 17:54 | 10.87785 | -86.31981 | 36913 ft | 475 kts | 144° |
| 2026-04-27 17:54 | 10.82520 | -86.27913 | 36909 ft | 475 kts | 144° |
| 2026-04-27 17:55 | 10.77256 | -86.23849 | 36907 ft | 475 kts | 144° |
| 2026-04-27 17:55 | 10.71995 | -86.19789 | 36906 ft | 475 kts | 144° |
| 2026-04-27 17:56 | 10.66722 | -86.15721 | 36905 ft | 475 kts | 144° |
| 2026-04-27 17:56 | 10.61444 | -86.11651 | 36905 ft | 474 kts | 144° |
| 2026-04-27 17:57 | 10.56215 | -86.07619 | 36904 ft | 474 kts | 144° |
| 2026-04-27 17:57 | 10.50944 | -86.03560 | 36904 ft | 474 kts | 144° |
| 2026-04-27 17:58 | 10.45682 | -85.99507 | 36902 ft | 474 kts | 144° |
| 2026-04-27 17:58 | 10.40437 | -85.95469 | 36905 ft | 474 kts | 144° |
| 2026-04-27 17:59 | 10.35150 | -85.91404 | 36909 ft | 474 kts | 144° |
| 2026-04-27 17:59 | 10.29925 | -85.87384 | 36914 ft | 474 kts | 144° |
| 2026-04-27 18:00 | 10.24665 | -85.83341 | 36918 ft | 474 kts | 144° |
| 2026-04-27 18:00 | 10.19383 | -85.79282 | 36917 ft | 473 kts | 144° |
| 2026-04-27 18:01 | 10.14149 | -85.75259 | 36914 ft | 473 kts | 144° |
| 2026-04-27 18:01 | 10.08906 | -85.71233 | 36910 ft | 473 kts | 145° |
| 2026-04-27 18:02 | 10.03635 | -85.67191 | 36907 ft | 473 kts | 144° |
| 2026-04-27 18:02 | 9.98398 | -85.63172 | 36913 ft | 473 kts | 145° |
| 2026-04-27 18:03 | 9.93140 | -85.59139 | 36923 ft | 473 kts | 145° |
| 2026-04-27 18:03 | 9.87879 | -85.55107 | 36929 ft | 473 kts | 145° |
| 2026-04-27 18:04 | 9.82629 | -85.51085 | 36927 ft | 472 kts | 145° |
| 2026-04-27 18:04 | 9.77405 | -85.47084 | 36922 ft | 472 kts | 145° |
| 2026-04-27 18:05 | 9.72161 | -85.43070 | 36917 ft | 472 kts | 145° |
| 2026-04-27 18:05 | 9.66891 | -85.39037 | 36914 ft | 472 kts | 145° |
| 2026-04-27 18:06 | 9.61671 | -85.35043 | 36915 ft | 472 kts | 145° |
| 2026-04-27 18:06 | 9.56437 | -85.31041 | 36914 ft | 472 kts | 145° |
| 2026-04-27 18:07 | 9.51185 | -85.27027 | 36912 ft | 472 kts | 145° |
| 2026-04-27 18:07 | 9.45935 | -85.23016 | 36913 ft | 471 kts | 145° |
| 2026-04-27 18:08 | 9.40688 | -85.19008 | 36914 ft | 471 kts | 146° |
| 2026-04-27 18:08 | 9.35446 | -85.15005 | 36912 ft | 471 kts | 146° |
| 2026-04-27 18:09 | 9.30222 | -85.11020 | 36904 ft | 472 kts | 145° |
| 2026-04-27 18:09 | 9.24967 | -85.07011 | 36900 ft | 472 kts | 146° |
| 2026-04-27 18:10 | 9.19709 | -85.03002 | 36899 ft | 472 kts | 145° |
| 2026-04-27 18:10 | 9.14453 | -84.98995 | 36898 ft | 472 kts | 146° |
| 2026-04-27 18:11 | 9.09221 | -84.95009 | 36901 ft | 472 kts | 146° |
| 2026-04-27 18:11 | 9.03961 | -84.91000 | 36901 ft | 472 kts | 146° |
| 2026-04-27 18:12 | 8.98743 | -84.87027 | 36902 ft | 471 kts | 146° |
| 2026-04-27 18:12 | 8.93495 | -84.83032 | 36903 ft | 471 kts | 146° |
| 2026-04-27 18:13 | 8.88227 | -84.79026 | 36903 ft | 472 kts | 146° |
| 2026-04-27 18:13 | 8.82976 | -84.75034 | 36903 ft | 472 kts | 146° |
| 2026-04-27 18:14 | 8.77738 | -84.71050 | 36903 ft | 472 kts | 146° |
| 2026-04-27 18:14 | 8.72485 | -84.67057 | 36904 ft | 472 kts | 146° |
| 2026-04-27 18:15 | 8.67237 | -84.63069 | 36904 ft | 472 kts | 146° |
| 2026-04-27 18:15 | 8.61984 | -84.59081 | 36907 ft | 472 kts | 146° |
| 2026-04-27 18:16 | 8.56732 | -84.55093 | 36909 ft | 472 kts | 146° |
| 2026-04-27 18:16 | 8.51507 | -84.51128 | 36911 ft | 471 kts | 146° |
| 2026-04-27 18:17 | 8.46258 | -84.47147 | 36912 ft | 472 kts | 146° |
| 2026-04-27 18:17 | 8.40976 | -84.43141 | 36914 ft | 472 kts | 146° |
| 2026-04-27 18:18 | 8.35736 | -84.39167 | 36915 ft | 472 kts | 146° |
| 2026-04-27 18:18 | 8.30495 | -84.35194 | 36915 ft | 472 kts | 146° |
| 2026-04-27 18:19 | 8.25214 | -84.31194 | 36917 ft | 472 kts | 146° |
| 2026-04-27 18:19 | 8.19965 | -84.27219 | 36919 ft | 471 kts | 146° |
| 2026-04-27 18:20 | 8.14722 | -84.23249 | 36922 ft | 471 kts | 146° |
| 2026-04-27 18:20 | 8.09487 | -84.19288 | 36923 ft | 471 kts | 145° |
| 2026-04-27 18:21 | 8.04226 | -84.15308 | 36923 ft | 471 kts | 145° |
| 2026-04-27 18:21 | 7.98996 | -84.11352 | 36923 ft | 471 kts | 145° |
| 2026-04-27 18:22 | 7.93709 | -84.07352 | 36923 ft | 472 kts | 146° |
| 2026-04-27 18:22 | 7.88471 | -84.03394 | 36924 ft | 472 kts | 145° |
| 2026-04-27 18:23 | 7.83204 | -83.99413 | 36923 ft | 472 kts | 145° |
| 2026-04-27 18:23 | 7.77942 | -83.95438 | 36923 ft | 471 kts | 145° |
| 2026-04-27 18:24 | 7.72722 | -83.91497 | 36922 ft | 472 kts | 145° |
| 2026-04-27 18:24 | 7.67464 | -83.87528 | 36918 ft | 472 kts | 145° |
| 2026-04-27 18:25 | 7.62195 | -83.83551 | 36909 ft | 472 kts | 146° |
| 2026-04-27 18:25 | 7.56917 | -83.79569 | 36904 ft | 472 kts | 146° |
| 2026-04-27 18:26 | 7.51678 | -83.75618 | 36904 ft | 472 kts | 145° |
| 2026-04-27 18:26 | 7.46404 | -83.71641 | 36903 ft | 472 kts | 146° |
| 2026-04-27 18:27 | 7.41131 | -83.67669 | 36903 ft | 472 kts | 145° |
| 2026-04-27 18:27 | 7.35886 | -83.63715 | 36905 ft | 472 kts | 146° |
| 2026-04-27 18:28 | 7.30605 | -83.59737 | 36903 ft | 472 kts | 146° |
| 2026-04-27 18:28 | 7.25364 | -83.55791 | 36904 ft | 473 kts | 146° |
| 2026-04-27 18:29 | 7.20062 | -83.51801 | 36904 ft | 473 kts | 145° |
| 2026-04-27 18:29 | 7.14795 | -83.47835 | 36905 ft | 474 kts | 146° |
| 2026-04-27 18:30 | 7.09502 | -83.43854 | 36905 ft | 473 kts | 145° |
| 2026-04-27 18:30 | 7.04223 | -83.39883 | 36908 ft | 473 kts | 145° |
| 2026-04-27 18:31 | 6.98972 | -83.35935 | 36917 ft | 472 kts | 146° |
| 2026-04-27 18:31 | 6.93698 | -83.31970 | 36923 ft | 472 kts | 146° |
| 2026-04-27 18:32 | 6.88397 | -83.27986 | 36925 ft | 473 kts | 146° |
| 2026-04-27 18:32 | 6.83134 | -83.24033 | 36923 ft | 474 kts | 146° |
| 2026-04-27 18:33 | 6.77832 | -83.20050 | 36922 ft | 474 kts | 146° |
| 2026-04-27 18:33 | 6.72527 | -83.16065 | 36925 ft | 474 kts | 146° |
| 2026-04-27 18:34 | 6.67257 | -83.12110 | 36923 ft | 474 kts | 146° |
| 2026-04-27 18:34 | 6.61957 | -83.08132 | 36924 ft | 473 kts | 146° |
| 2026-04-27 18:35 | 6.56692 | -83.04182 | 36923 ft | 473 kts | 146° |
| 2026-04-27 18:35 | 6.51405 | -83.00214 | 36921 ft | 474 kts | 146° |
| 2026-04-27 18:36 | 6.46132 | -82.96261 | 36923 ft | 475 kts | 146° |
| 2026-04-27 18:36 | 6.40827 | -82.92282 | 36923 ft | 475 kts | 146° |
| 2026-04-27 18:37 | 6.35462 | -82.88434 | 36923 ft | 474 kts | 148° |
| 2026-04-27 18:37 | 6.30014 | -82.84664 | 36923 ft | 474 kts | 148° |
| 2026-04-27 18:38 | 6.24580 | -82.80890 | 36924 ft | 474 kts | 148° |
| 2026-04-27 18:38 | 6.19167 | -82.77121 | 36920 ft | 474 kts | 148° |
| 2026-04-27 18:39 | 6.13745 | -82.73340 | 36916 ft | 474 kts | 148° |
| 2026-04-27 18:39 | 6.08298 | -82.69540 | 36913 ft | 474 kts | 148° |
| 2026-04-27 18:40 | 6.02871 | -82.65756 | 36907 ft | 475 kts | 148° |
| 2026-04-27 18:40 | 5.97423 | -82.61959 | 36903 ft | 475 kts | 148° |
| 2026-04-27 18:41 | 5.92016 | -82.58189 | 36902 ft | 475 kts | 148° |
| 2026-04-27 18:41 | 5.86572 | -82.54398 | 36903 ft | 476 kts | 147° |
| 2026-04-27 18:42 | 5.82039 | -82.51238 | 36902 ft | 476 kts | 148° |
| 2026-04-27 18:42 | 5.75681 | -82.46809 | 36902 ft | 475 kts | 148° |
| 2026-04-27 18:43 | 5.70246 | -82.43024 | 36902 ft | 475 kts | 147° |
| 2026-04-27 18:43 | 5.64809 | -82.39239 | 36902 ft | 475 kts | 148° |
| 2026-04-27 18:44 | 5.59366 | -82.35450 | 36903 ft | 475 kts | 148° |
| 2026-04-27 18:44 | 5.53909 | -82.31654 | 36902 ft | 475 kts | 148° |
| 2026-04-27 18:45 | 5.48464 | -82.27864 | 36903 ft | 477 kts | 148° |
| 2026-04-27 18:45 | 5.42994 | -82.24060 | 36902 ft | 477 kts | 148° |
| 2026-04-27 18:46 | 5.37565 | -82.20286 | 36903 ft | 476 kts | 148° |
| 2026-04-27 18:46 | 5.32109 | -82.16492 | 36903 ft | 477 kts | 148° |
| 2026-04-27 18:47 | 5.26660 | -82.12703 | 36903 ft | 476 kts | 148° |
| 2026-04-27 18:47 | 5.21197 | -82.08906 | 36903 ft | 477 kts | 148° |
| 2026-04-27 18:48 | 5.15736 | -82.05112 | 36904 ft | 477 kts | 148° |
| 2026-04-27 18:48 | 5.10276 | -82.01320 | 36904 ft | 477 kts | 148° |
| 2026-04-27 18:49 | 5.04806 | -81.97522 | 36903 ft | 477 kts | 148° |
| 2026-04-27 18:49 | 4.99344 | -81.93728 | 36902 ft | 477 kts | 148° |
| 2026-04-27 18:50 | 4.93908 | -81.89954 | 36902 ft | 477 kts | 148° |
| 2026-04-27 18:50 | 4.88428 | -81.86151 | 36902 ft | 476 kts | 148° |
| 2026-04-27 18:51 | 4.82965 | -81.82360 | 36901 ft | 477 kts | 148° |
| 2026-04-27 18:51 | 4.77509 | -81.78574 | 36906 ft | 476 kts | 148° |
| 2026-04-27 18:52 | 4.72079 | -81.74807 | 36912 ft | 476 kts | 147° |
| 2026-04-27 18:53 | 4.63903 | -81.69136 | 36917 ft | 476 kts | 147° |
| 2026-04-27 18:53 | 4.58441 | -81.65348 | 36917 ft | 476 kts | 147° |
| 2026-04-27 18:54 | 4.52990 | -81.61567 | 36918 ft | 476 kts | 147° |
| 2026-04-27 18:54 | 4.47523 | -81.57798 | 36918 ft | 475 kts | 148° |
| 2026-04-27 18:55 | 4.42093 | -81.54069 | 36914 ft | 475 kts | 148° |
| 2026-04-27 18:55 | 4.36624 | -81.50314 | 36910 ft | 475 kts | 147° |
| 2026-04-27 18:56 | 4.31177 | -81.46570 | 36907 ft | 475 kts | 148° |
| 2026-04-27 18:56 | 4.25729 | -81.42825 | 36903 ft | 475 kts | 147° |
| 2026-04-27 18:57 | 4.20272 | -81.39075 | 36903 ft | 475 kts | 148° |
| 2026-04-27 18:57 | 4.14788 | -81.35309 | 36903 ft | 475 kts | 147° |
| 2026-04-27 18:58 | 4.09348 | -81.31572 | 36904 ft | 475 kts | 147° |
| 2026-04-27 18:58 | 4.03885 | -81.27820 | 36904 ft | 475 kts | 147° |
| 2026-04-27 18:59 | 3.98427 | -81.24071 | 36903 ft | 475 kts | 147° |
| 2026-04-27 18:59 | 3.93001 | -81.20345 | 36904 ft | 475 kts | 147° |
| 2026-04-27 19:00 | 3.87533 | -81.16589 | 36903 ft | 475 kts | 147° |
| 2026-04-27 19:00 | 3.82065 | -81.12834 | 36904 ft | 475 kts | 147° |
| 2026-04-27 19:01 | 3.76609 | -81.09090 | 36902 ft | 475 kts | 147° |
| 2026-04-27 19:01 | 3.71140 | -81.05338 | 36904 ft | 475 kts | 147° |
| 2026-04-27 19:02 | 3.65694 | -81.01601 | 36903 ft | 476 kts | 147° |
| 2026-04-27 19:02 | 3.60235 | -80.97858 | 36903 ft | 476 kts | 147° |
| 2026-04-27 19:03 | 3.54771 | -80.94109 | 36903 ft | 475 kts | 147° |
| 2026-04-27 19:03 | 3.49323 | -80.90372 | 36902 ft | 474 kts | 147° |
| 2026-04-27 19:04 | 3.43883 | -80.86642 | 36903 ft | 475 kts | 147° |
| 2026-04-27 19:04 | 3.38428 | -80.82902 | 36902 ft | 475 kts | 147° |
| 2026-04-27 19:05 | 3.32955 | -80.79150 | 36902 ft | 475 kts | 147° |
| 2026-04-27 19:05 | 3.27503 | -80.75430 | 36902 ft | 475 kts | 147° |
| 2026-04-27 19:06 | 3.22027 | -80.71709 | 36902 ft | 476 kts | 147° |
| 2026-04-27 19:06 | 3.16539 | -80.67978 | 36902 ft | 476 kts | 147° |
| 2026-04-27 19:07 | 3.11046 | -80.64239 | 36902 ft | 475 kts | 147° |
| 2026-04-27 19:07 | 3.05595 | -80.60531 | 36902 ft | 475 kts | 147° |
| 2026-04-27 19:08 | 3.00132 | -80.56815 | 36903 ft | 475 kts | 147° |
| 2026-04-27 19:08 | 2.94667 | -80.53097 | 36902 ft | 475 kts | 147° |
| 2026-04-27 19:09 | 2.89168 | -80.49358 | 36902 ft | 475 kts | 147° |
| 2026-04-27 19:09 | 2.83690 | -80.45634 | 36902 ft | 476 kts | 147° |
| 2026-04-27 19:10 | 2.78243 | -80.41930 | 36898 ft | 475 kts | 147° |
| 2026-04-27 19:10 | 2.72767 | -80.38207 | 36895 ft | 475 kts | 147° |
| 2026-04-27 19:11 | 2.67313 | -80.34499 | 36894 ft | 475 kts | 147° |
| 2026-04-27 19:11 | 2.61810 | -80.30759 | 36895 ft | 475 kts | 147° |
| 2026-04-27 19:12 | 2.56371 | -80.27062 | 36892 ft | 475 kts | 147° |
| 2026-04-27 19:12 | 2.50891 | -80.23338 | 36887 ft | 475 kts | 147° |
| 2026-04-27 19:13 | 2.45409 | -80.19613 | 36884 ft | 475 kts | 147° |
| 2026-04-27 19:13 | 2.39948 | -80.15904 | 36885 ft | 476 kts | 147° |
| 2026-04-27 19:14 | 2.34475 | -80.12184 | 36884 ft | 476 kts | 147° |
| 2026-04-27 19:14 | 2.28978 | -80.08450 | 36885 ft | 476 kts | 147° |
| 2026-04-27 19:15 | 2.23518 | -80.04742 | 36884 ft | 476 kts | 147° |
| 2026-04-27 19:15 | 2.18018 | -80.01006 | 36885 ft | 476 kts | 147° |
| 2026-04-27 19:16 | 2.12570 | -79.97306 | 36890 ft | 475 kts | 147° |
| 2026-04-27 19:16 | 2.07068 | -79.93571 | 36895 ft | 475 kts | 147° |
| 2026-04-27 19:17 | 2.01606 | -79.89862 | 36900 ft | 475 kts | 147° |
| 2026-04-27 19:17 | 1.96112 | -79.86132 | 36900 ft | 476 kts | 147° |
| 2026-04-27 19:18 | 1.90620 | -79.82403 | 36898 ft | 476 kts | 147° |
| 2026-04-27 19:18 | 1.85247 | -79.78754 | 36894 ft | 476 kts | 147° |
| 2026-04-27 19:19 | 1.79750 | -79.75024 | 36896 ft | 475 kts | 147° |
| 2026-04-27 19:19 | 1.74269 | -79.71305 | 36896 ft | 475 kts | 147° |
| 2026-04-27 19:20 | 1.68819 | -79.67608 | 36895 ft | 475 kts | 147° |
| 2026-04-27 19:20 | 1.63356 | -79.63902 | 36893 ft | 474 kts | 147° |
| 2026-04-27 19:21 | 1.57898 | -79.60198 | 36893 ft | 474 kts | 147° |
| 2026-04-27 19:21 | 1.52419 | -79.56479 | 36893 ft | 474 kts | 147° |
| 2026-04-27 19:22 | 1.46980 | -79.52787 | 36891 ft | 474 kts | 147° |
| 2026-04-27 19:22 | 1.41514 | -79.49078 | 36890 ft | 473 kts | 147° |
| 2026-04-27 19:23 | 1.36047 | -79.45392 | 36891 ft | 472 kts | 147° |
| 2026-04-27 19:23 | 1.30593 | -79.41722 | 36893 ft | 472 kts | 147° |
| 2026-04-27 19:24 | 1.25152 | -79.38056 | 36891 ft | 472 kts | 147° |
| 2026-04-27 19:24 | 1.19715 | -79.34392 | 36889 ft | 472 kts | 147° |
| 2026-04-27 19:25 | 1.14239 | -79.30701 | 36891 ft | 471 kts | 147° |
| 2026-04-27 19:25 | 1.08802 | -79.27038 | 36889 ft | 471 kts | 147° |
| 2026-04-27 19:26 | 1.03352 | -79.23367 | 36417 ft | 472 kts | 147° |
| 2026-04-27 19:26 | 1.00632 | -79.21536 | 35879 ft | 472 kts | 146° |
| 2026-04-27 19:26 | 0.97896 | -79.19692 | 35293 ft | 472 kts | 146° |
| 2026-04-27 19:26 | 0.95192 | -79.17870 | 34753 ft | 469 kts | 146° |
| 2026-04-27 19:27 | 0.92494 | -79.16052 | 34200 ft | 467 kts | 146° |
| 2026-04-27 19:27 | 0.90210 | -79.14514 | 33729 ft | 464 kts | 146° |
| 2026-04-27 19:27 | 0.87927 | -79.12975 | 33266 ft | 463 kts | 146° |
| 2026-04-27 19:27 | 0.85117 | -79.11082 | 32693 ft | 464 kts | 146° |
| 2026-04-27 19:28 | 0.82030 | -79.09000 | 32081 ft | 464 kts | 146° |
| 2026-04-27 19:28 | 0.79354 | -79.07196 | 31552 ft | 464 kts | 146° |
| 2026-04-27 19:28 | 0.76684 | -79.05398 | 31043 ft | 465 kts | 146° |
| 2026-04-27 19:28 | 0.73970 | -79.03571 | 30517 ft | 467 kts | 146° |
| 2026-04-27 19:29 | 0.71271 | -79.01753 | 29934 ft | 468 kts | 146° |
| 2026-04-27 19:29 | 0.68573 | -78.99934 | 29340 ft | 467 kts | 146° |
| 2026-04-27 19:29 | 0.65896 | -78.98132 | 28801 ft | 468 kts | 146° |
| 2026-04-27 19:29 | 0.63179 | -78.96300 | 28259 ft | 471 kts | 146° |
| 2026-04-27 19:30 | 0.60455 | -78.94466 | 27616 ft | 473 kts | 146° |
| 2026-04-27 19:30 | 0.57717 | -78.92623 | 26971 ft | 473 kts | 146° |
| 2026-04-27 19:30 | 0.55020 | -78.90807 | 26516 ft | 468 kts | 145° |
| 2026-04-27 19:30 | 0.52311 | -78.88982 | 25947 ft | 466 kts | 146° |
| 2026-04-27 19:31 | 0.49640 | -78.87184 | 25435 ft | 463 kts | 145° |
| 2026-04-27 19:31 | 0.46961 | -78.85378 | 24863 ft | 461 kts | 145° |
| 2026-04-27 19:31 | 0.44300 | -78.83585 | 24278 ft | 459 kts | 145° |
| 2026-04-27 19:31 | 0.41675 | -78.81816 | 23762 ft | 456 kts | 145° |
| 2026-04-27 19:32 | 0.39064 | -78.80056 | 23305 ft | 451 kts | 145° |
| 2026-04-27 19:32 | 0.36456 | -78.78300 | 22846 ft | 447 kts | 144° |
| 2026-04-27 19:32 | 0.33897 | -78.76575 | 22399 ft | 442 kts | 144° |
| 2026-04-27 19:32 | 0.31345 | -78.74855 | 21973 ft | 438 kts | 144° |
| 2026-04-27 19:33 | 0.28839 | -78.73166 | 21555 ft | 434 kts | 144° |
| 2026-04-27 19:33 | 0.27179 | -78.72047 | 21291 ft | 430 kts | 144° |
| 2026-04-27 19:33 | 0.23895 | -78.69833 | 20779 ft | 425 kts | 144° |
| 2026-04-27 19:33 | 0.21439 | -78.68175 | 20370 ft | 421 kts | 144° |
| 2026-04-27 19:34 | 0.19039 | -78.66555 | 19988 ft | 418 kts | 144° |
| 2026-04-27 19:34 | 0.16626 | -78.64929 | 19597 ft | 414 kts | 144° |
| 2026-04-27 19:34 | 0.14254 | -78.63329 | 19173 ft | 412 kts | 144° |
| 2026-04-27 19:34 | 0.11861 | -78.61715 | 18782 ft | 409 kts | 145° |
| 2026-04-27 19:35 | 0.09522 | -78.60137 | 18365 ft | 407 kts | 144° |
| 2026-04-27 19:35 | 0.07199 | -78.58572 | 18282 ft | 394 kts | 144° |
| 2026-04-27 19:35 | 0.04958 | -78.57062 | 18276 ft | 380 kts | 144° |
| 2026-04-27 19:35 | 0.02819 | -78.55617 | 18279 ft | 366 kts | 144° |
| 2026-04-27 19:36 | 0.00715 | -78.54201 | 18278 ft | 353 kts | 144° |
| 2026-04-27 19:36 | -0.01262 | -78.52867 | 18272 ft | 340 kts | 144° |
| 2026-04-27 19:36 | -0.03285 | -78.51675 | 18266 ft | 328 kts | 154° |
| 2026-04-27 19:36 | -0.05410 | -78.50978 | 18251 ft | 318 kts | 167° |
| 2026-04-27 19:37 | -0.07604 | -78.50667 | 18199 ft | 309 kts | 172° |
| 2026-04-27 19:37 | -0.09704 | -78.50462 | 18157 ft | 298 kts | 172° |
| 2026-04-27 19:37 | -0.11738 | -78.50270 | 18146 ft | 286 kts | 172° |
| 2026-04-27 19:37 | -0.13686 | -78.50077 | 18128 ft | 273 kts | 172° |
| 2026-04-27 19:38 | -0.15560 | -78.49912 | 18018 ft | 265 kts | 173° |
| 2026-04-27 19:38 | -0.17392 | -78.49770 | 17782 ft | 262 kts | 173° |
| 2026-04-27 19:38 | -0.19213 | -78.49632 | 17559 ft | 256 kts | 173° |
| 2026-04-27 19:38 | -0.20982 | -78.49499 | 17381 ft | 249 kts | 173° |
| 2026-04-27 19:39 | -0.22683 | -78.49365 | 17217 ft | 241 kts | 172° |
| 2026-04-27 19:39 | -0.24335 | -78.49236 | 17046 ft | 234 kts | 173° |
| 2026-04-27 19:39 | -0.25956 | -78.49107 | 16879 ft | 227 kts | 173° |
| 2026-04-27 19:39 | -0.27496 | -78.48985 | 16736 ft | 221 kts | 173° |
| 2026-04-27 19:40 | -0.29038 | -78.48862 | 16575 ft | 222 kts | 173° |
| 2026-04-27 19:40 | -0.30602 | -78.48739 | 16421 ft | 221 kts | 172° |
| 2026-04-27 19:40 | -0.32131 | -78.48616 | 16259 ft | 221 kts | 173° |
| 2026-04-27 19:40 | -0.33677 | -78.48495 | 16100 ft | 220 kts | 173° |
| 2026-04-27 19:41 | -0.35190 | -78.48306 | 15926 ft | 219 kts | 165° |
| 2026-04-27 19:41 | -0.36662 | -78.47863 | 15710 ft | 219 kts | 155° |
| 2026-04-27 19:41 | -0.38018 | -78.47172 | 15416 ft | 219 kts | 146° |
| 2026-04-27 19:41 | -0.39278 | -78.46309 | 15117 ft | 220 kts | 140° |
| 2026-04-27 19:42 | -0.40456 | -78.45310 | 14799 ft | 220 kts | 134° |
| 2026-04-27 19:42 | -0.41498 | -78.44227 | 14513 ft | 218 kts | 128° |
| 2026-04-27 19:42 | -0.42258 | -78.42941 | 14251 ft | 212 kts | 103° |
| 2026-04-27 19:42 | -0.42310 | -78.41507 | 14069 ft | 207 kts | 76° |
| 2026-04-27 19:43 | -0.41687 | -78.40224 | 13712 ft | 210 kts | 49° |
| 2026-04-27 19:43 | -0.40498 | -78.39342 | 13357 ft | 214 kts | 29° |
| 2026-04-27 19:43 | -0.39149 | -78.38715 | 13005 ft | 217 kts | 25° |
| 2026-04-27 19:43 | -0.37754 | -78.38110 | 12653 ft | 220 kts | 25° |
| 2026-04-27 19:44 | -0.36339 | -78.37489 | 12284 ft | 222 kts | 25° |
| 2026-04-27 19:44 | -0.34920 | -78.36857 | 11917 ft | 225 kts | 25° |
| 2026-04-27 19:44 | -0.33468 | -78.36204 | 11552 ft | 228 kts | 25° |
| 2026-04-27 19:44 | -0.32014 | -78.35549 | 11156 ft | 228 kts | 25° |
| 2026-04-27 19:45 | -0.30542 | -78.34987 | 10800 ft | 226 kts | 14° |
| 2026-04-27 19:45 | -0.29012 | -78.34775 | 10669 ft | 211 kts | 3° |
| 2026-04-27 19:45 | -0.27596 | -78.34776 | 10630 ft | 199 kts | 359° |
| 2026-04-27 19:45 | -0.26213 | -78.34840 | 10386 ft | 193 kts | 358° |
| 2026-04-27 19:46 | -0.24887 | -78.34910 | 10121 ft | 185 kts | 359° |
| 2026-04-27 19:46 | -0.23624 | -78.34969 | 9872 ft | 178 kts | 359° |
| 2026-04-27 19:46 | -0.22407 | -78.35020 | 9635 ft | 171 kts | 359° |
| 2026-04-27 19:46 | -0.21191 | -78.35072 | 9416 ft | 172 kts | 360° |
| 2026-04-27 19:47 | -0.19991 | -78.35120 | 9183 ft | 172 kts | 358° |
| 2026-04-27 19:47 | -0.18789 | -78.35171 | 8941 ft | 172 kts | 359° |
| 2026-04-27 19:47 | -0.17599 | -78.35227 | 8700 ft | 171 kts | 359° |
| 2026-04-27 19:47 | -0.16391 | -78.35279 | 8479 ft | 170 kts | 358° |
| 2026-04-27 19:48 | -0.15213 | -78.35328 | 8277 ft | 170 kts | 357° |
| 2026-04-27 19:48 | -0.14026 | -78.35376 | 8022 ft | 168 kts | 358° |
| 2026-04-27 19:48 | -0.12934 | -78.35417 | 7940 ft | 141 kts | 357° |
| 2026-04-27 19:48 | -0.12146 | -78.35453 | 7895 ft | 90 kts | 356° |
| 2026-04-27 19:49 | -0.11704 | -78.35471 | 7874 ft | 40 kts | 357° |
| 2026-04-27 19:49 | -0.11426 | -78.35484 | 7864 ft | 39 kts | 357° |
| 2026-04-27 19:49 | -0.11181 | -78.35494 | 7858 ft | 26 kts | 358° |
| 2026-04-27 19:49 | -0.11000 | -78.35502 | 7854 ft | 25 kts | 358° |
| 2026-04-27 19:50 | -0.10830 | -78.35509 | 7851 ft | 24 kts | 357° |
| 2026-04-27 19:50 | -0.10664 | -78.35516 | 7848 ft | 23 kts | 357° |
| 2026-04-27 19:50 | -0.10579 | -78.35547 | 7845 ft | 10 kts | 285° |
| 2026-04-27 19:50 | -0.10576 | -78.35621 | 7844 ft | 10 kts | 268° |
| 2026-04-27 19:51 | -0.10587 | -78.35680 | 7844 ft | 4 kts | 221° |
| 2026-04-27 19:51 | -0.10625 | -78.35688 | 7844 ft | 5 kts | 180° |
| 2026-04-27 19:51 | -0.10664 | -78.35687 | 7846 ft | 4 kts | 178° |
| 2026-04-27 19:51 | -0.10692 | -78.35686 | 7848 ft | 3 kts | 178° |
| 2026-04-27 19:52 | -0.10715 | -78.35686 | 7850 ft | 3 kts | 178° |
| 2026-04-27 19:52 | -0.10739 | -78.35684 | 7851 ft | 3 kts | 177° |
| 2026-04-27 19:52 | -0.10770 | -78.35683 | 7852 ft | 4 kts | 177° |
| 2026-04-27 19:52 | -0.10809 | -78.35681 | 7853 ft | 6 kts | 177° |
| 2026-04-27 19:53 | -0.10914 | -78.35677 | 7855 ft | 9 kts | 178° |
| 2026-04-27 19:53 | -0.10990 | -78.35673 | 7856 ft | 12 kts | 178° |
| 2026-04-27 19:53 | -0.11083 | -78.35670 | 7857 ft | 14 kts | 178° |
| 2026-04-27 19:54 | -0.11189 | -78.35665 | 7859 ft | 15 kts | 177° |
| 2026-04-27 19:54 | -0.11304 | -78.35661 | 7861 ft | 16 kts | 177° |
| 2026-04-27 19:54 | -0.11424 | -78.35655 | 7864 ft | 16 kts | 177° |
| 2026-04-27 19:54 | -0.11532 | -78.35650 | 7868 ft | 14 kts | 178° |
| 2026-04-27 19:55 | -0.11628 | -78.35646 | 7871 ft | 13 kts | 177° |
| 2026-04-27 19:55 | -0.11717 | -78.35642 | 7874 ft | 12 kts | 178° |
| 2026-04-27 19:55 | -0.11801 | -78.35638 | 7878 ft | 11 kts | 178° |
| 2026-04-27 19:55 | -0.11880 | -78.35635 | 7882 ft | 10 kts | 177° |
| 2026-04-27 19:56 | -0.11956 | -78.35632 | 7885 ft | 10 kts | 177° |
| 2026-04-27 19:56 | -0.12027 | -78.35629 | 7889 ft | 10 kts | 177° |
| 2026-04-27 19:56 | -0.12109 | -78.35626 | 7893 ft | 12 kts | 177° |
| 2026-04-27 19:56 | -0.12196 | -78.35622 | 7898 ft | 12 kts | 177° |
| 2026-04-27 19:57 | -0.12284 | -78.35618 | 7903 ft | 12 kts | 178° |
| 2026-04-27 19:57 | -0.12378 | -78.35615 | 7907 ft | 14 kts | 178° |
| 2026-04-27 19:57 | -0.12483 | -78.35611 | 7912 ft | 15 kts | 178° |
| 2026-04-27 19:57 | -0.12588 | -78.35606 | 7919 ft | 14 kts | 177° |
| 2026-04-27 19:58 | -0.12673 | -78.35611 | 7923 ft | 7 kts | 216° |
| 2026-04-27 19:58 | -0.12690 | -78.35664 | 7922 ft | 8 kts | 257° |
| 2026-04-27 19:58 | -0.12715 | -78.35680 | 7923 ft | 4 kts | 178° |
| 2026-04-27 19:58 | -0.12745 | -78.35680 | 7924 ft | 5 kts | 182° |
| 2026-04-27 19:59 | -0.12781 | -78.35680 | 7925 ft | 5 kts | 179° |
| 2026-04-27 19:59 | -0.12809 | -78.35680 | 7927 ft | 3 kts | 178° |
| 2026-04-27 19:59 | -0.12838 | -78.35679 | 7929 ft | 4 kts | 178° |
| 2026-04-27 19:59 | -0.12881 | -78.35677 | 7932 ft | 6 kts | 176° |
| 2026-04-27 20:00 | -0.12936 | -78.35674 | 7935 ft | 8 kts | 176° |
| 2026-04-27 20:00 | -0.13001 | -78.35670 | 7939 ft | 10 kts | 175° |
| 2026-04-27 20:00 | -0.13029 | -78.35680 | 7940 ft | 2 kts | 256° |
| 2026-04-27 20:00 | -0.13026 | -78.35710 | 7939 ft | 6 kts | 271° |
| 2026-04-27 20:01 | -0.13028 | -78.35750 | 7938 ft | 3 kts | 267° |
| 2026-04-27 20:01 | -0.13028 | -78.35754 | 7938 ft | 0 kts | 267° |